Time;durP1;ratioP1;P1;durP2;ratioP2;P2;SDS_P1;SDS_P2;PMS_P1;PMS_P2;Temp;Humidity;BMP_temperature;BMP_pressure;BME280_temperature;BME280_humidity;BME280_pressure;Samples;Min_cycle;Max_cycle;Signal;HPM_P1;HPM_P2
2021/05/26 00:00:09;;;;;;;;;0.00;0.00;;;;;13.62;65.66;101000.28;5060020;28;45341;-59
2021/05/26 00:02:34;;;;;;;;;0.00;0.00;;;;;13.59;66.42;101008.47;5060292;28;45406;-59
2021/05/26 00:05:00;;;;;;;;;0.00;0.00;;;;;13.54;66.03;100995.66;5060612;28;45331;-59
2021/05/26 00:07:25;;;;;;;;;0.00;0.00;;;;;13.52;66.88;100994.97;5060565;28;45445;-59
2021/05/26 00:09:51;;;;;;;;;0.00;0.00;;;;;13.48;66.45;100988.28;5047813;28;46571;-58
2021/05/26 00:12:16;;;;;;;;;0.00;0.00;;;;;13.44;66.13;100992.13;5051591;28;45410;-58
2021/05/26 00:14:42;;;;;;;;;0.00;0.00;;;;;13.41;66.25;100981.88;5039919;28;45326;-58
2021/05/26 00:17:07;;;;;;;;;1.00;0.00;;;;;13.36;66.30;100976.13;5040026;28;45359;-58
2021/05/26 00:19:33;;;;;;;;;0.00;0.00;;;;;13.30;66.62;100968.72;5039941;28;45682;-58
2021/05/26 00:21:59;;;;;;;;;0.00;0.00;;;;;13.27;66.80;100980.34;5040148;28;45331;-59
2021/05/26 00:24:24;;;;;;;;;0.00;0.00;;;;;13.20;66.72;100960.75;5041842;28;45563;-58
2021/05/26 00:26:49;;;;;;;;;0.25;0.00;;;;;13.20;66.81;100954.66;5061307;28;45462;-58
2021/05/26 00:29:15;;;;;;;;;0.00;0.00;;;;;13.17;67.08;100954.88;5063123;28;46177;-58
2021/05/26 00:31:40;;;;;;;;;0.00;0.00;;;;;13.13;66.97;100949.88;5063434;28;45241;-57
2021/05/26 00:34:05;;;;;;;;;0.00;0.00;;;;;13.14;67.12;100937.53;5063526;28;45221;-59
2021/05/26 00:36:31;;;;;;;;;0.00;0.00;;;;;13.13;67.57;100936.69;5063644;28;45422;-59
2021/05/26 00:38:57;;;;;;;;;0.00;0.00;;;;;13.09;67.86;100927.38;5044876;28;45254;-58
2021/05/26 00:41:29;;;;;;;;;0.00;0.00;;;;;13.08;67.97;100932.78;5063432;28;45257;-58
2021/05/26 00:43:55;;;;;;;;;0.00;0.00;;;;;13.03;68.07;100914.72;5051333;28;45233;-58
2021/05/26 00:46:20;;;;;;;;;0.00;0.00;;;;;12.98;68.65;100908.16;5040745;28;45363;-58
2021/05/26 00:48:45;;;;;;;;;0.00;0.00;;;;;12.99;68.55;100907.19;5058451;28;45332;-58
2021/05/26 00:51:11;;;;;;;;;0.00;0.00;;;;;13.00;68.15;100909.72;5063189;28;45351;-59
2021/05/26 00:53:36;;;;;;;;;0.00;0.00;;;;;12.98;68.51;100901.09;5063149;28;45298;-58
2021/05/26 00:56:01;;;;;;;;;0.00;0.00;;;;;13.00;68.52;100891.25;5063224;28;45633;-58
2021/05/26 00:58:27;;;;;;;;;0.00;0.00;;;;;13.02;68.65;100888.47;5044829;28;47077;-58
2021/05/26 01:00:53;;;;;;;;;0.00;0.00;;;;;12.98;68.76;100894.97;5062827;28;45296;-58
2021/05/26 01:03:18;;;;;;;;;0.00;0.00;;;;;12.91;70.71;100887.59;5063129;28;45272;-58
2021/05/26 01:05:44;;;;;;;;;0.00;0.00;;;;;12.99;73.66;100883.47;5063448;28;45581;-58
2021/05/26 01:08:10;;;;;;;;;0.25;0.00;;;;;12.80;78.73;100876.28;5062623;28;46298;-59
2021/05/26 01:10:35;;;;;;;;;0.00;0.00;;;;;12.65;81.31;100884.50;5062966;28;45410;-58
2021/05/26 01:13:01;;;;;;;;;0.00;0.00;;;;;12.58;80.42;100872.00;5048843;28;45300;-57
2021/05/26 01:15:27;;;;;;;;;0.00;0.00;;;;;12.50;80.66;100859.44;5042743;28;45589;-59
2021/05/26 01:17:53;;;;;;;;;0.00;0.00;;;;;12.53;81.51;100856.59;5056448;28;46595;-58
2021/05/26 01:20:24;;;;;;;;;0.00;0.00;;;;;12.57;78.33;100851.88;5044438;28;45505;-56
2021/05/26 01:22:50;;;;;;;;;0.00;0.00;;;;;12.59;75.23;100861.34;5062848;28;45374;-57
2021/05/26 01:25:16;;;;;;;;;0.00;0.00;;;;;12.57;74.98;100847.47;5062925;28;45318;-58
2021/05/26 01:27:41;;;;;;;;;0.00;0.00;;;;;12.58;73.40;100846.47;5062493;28;46460;-58
2021/05/26 01:30:07;;;;;;;;;0.00;0.00;;;;;12.56;73.80;100835.22;5062477;28;45465;-56
2021/05/26 01:32:40;;;;;;;;;0.00;0.00;;;;;12.57;73.16;100834.28;5058574;28;45355;-58
2021/05/26 01:35:07;;;;;;;;;0.00;0.00;;;;;12.55;73.79;100832.72;5062998;28;45411;-56
2021/05/26 01:37:37;;;;;;;;;0.00;0.00;;;;;12.54;74.72;100828.44;5062432;28;46413;-57
2021/05/26 01:40:03;;;;;;;;;0.00;0.00;;;;;12.56;73.54;100821.22;5062357;28;45235;-57
2021/05/26 01:42:32;;;;;;;;;0.00;0.00;;;;;12.57;74.14;100828.16;5062488;28;45224;-56
2021/05/26 01:44:58;;;;;;;;;0.00;0.00;;;;;12.57;73.94;100813.19;5062484;28;45379;-57
2021/05/26 01:47:24;;;;;;;;;0.00;0.00;;;;;12.62;73.08;100811.00;5049224;28;45395;-58
2021/05/26 01:49:49;;;;;;;;;0.00;0.00;;;;;12.62;72.79;100816.28;5042240;28;45296;-57
2021/05/26 01:52:14;;;;;;;;;0.00;0.00;;;;;12.64;72.40;100808.25;5042146;28;45298;-58
2021/05/26 01:54:40;;;;;;;;;0.00;0.00;;;;;12.62;73.12;100804.91;5042554;28;45417;-59
2021/05/26 01:57:05;;;;;;;;;0.00;0.00;;;;;12.66;72.86;100808.94;5041938;28;46409;-58
2021/05/26 01:59:31;;;;;;;;;0.00;0.00;;;;;12.67;73.11;100797.44;5041752;28;45338;-56
2021/05/26 02:01:56;;;;;;;;;0.00;0.00;;;;;12.67;72.67;100792.97;5024044;28;45266;-58
2021/05/26 02:04:21;;;;;;;;;0.00;0.00;;;;;12.69;72.86;100793.69;5042385;28;45254;-59
2021/05/26 02:07:07;;;;;;;;;0.00;0.00;;;;;12.71;72.09;100786.50;5042034;28;46277;-57
2021/05/26 02:09:34;;;;;;;;;0.00;0.00;;;;;12.74;71.91;100790.66;5041969;28;45392;-57
2021/05/26 02:14:43;;;;;;;;;0.00;0.00;;;;;12.74;70.50;100780.13;5041888;28;45245;-58
2021/05/26 02:17:09;;;;;;;;;0.00;0.00;;;;;12.73;70.42;100775.81;5041370;28;46173;-56
2021/05/26 02:19:34;;;;;;;;;0.00;0.00;;;;;12.76;70.11;100782.63;5041309;28;45391;-58
2021/05/26 02:22:00;;;;;;;;;0.00;0.00;;;;;12.73;70.63;100767.91;5041879;28;45579;-58
2021/05/26 02:24:25;;;;;;;;;0.00;0.00;;;;;12.78;69.94;100767.50;5041840;28;45485;-59
2021/05/26 02:26:50;;;;;;;;;0.00;0.00;;;;;12.80;70.26;100768.22;5049200;28;46627;-59
2021/05/26 02:29:16;;;;;;;;;0.00;0.00;;;;;12.80;69.81;100758.50;5061471;28;45299;-58
2021/05/26 02:31:41;;;;;;;;;0.00;0.00;;;;;12.79;70.16;100746.31;5061762;28;46450;-57
2021/05/26 02:34:06;;;;;;;;;0.00;0.00;;;;;12.81;70.36;100759.38;5061794;28;45481;-57
2021/05/26 02:36:32;;;;;;;;;0.00;0.00;;;;;12.81;70.15;100751.44;5061409;28;46133;-57
2021/05/26 02:38:57;;;;;;;;;0.00;0.00;;;;;12.81;70.16;100744.38;5061198;28;45335;-57
2021/05/26 02:41:23;;;;;;;;;0.00;0.00;;;;;12.82;70.16;100745.19;5061687;28;47492;-58
2021/05/26 02:43:48;;;;;;;;;0.00;0.00;;;;;12.85;70.24;100748.41;5056761;28;45335;-57
2021/05/26 02:46:13;;;;;;;;;0.00;0.00;;;;;12.85;70.10;100758.09;5057782;28;45413;-58
2021/05/26 02:48:39;;;;;;;;;0.00;0.00;;;;;12.84;70.32;100744.09;5055502;28;45473;-59
2021/05/26 02:51:04;;;;;;;;;0.00;0.00;;;;;12.82;70.38;100737.28;5061467;28;45350;-58
2021/05/26 02:53:29;;;;;;;;;0.00;0.00;;;;;12.85;69.98;100743.13;5061518;28;45185;-59
2021/05/26 02:55:55;;;;;;;;;0.00;0.00;;;;;12.87;69.97;100729.81;5061317;28;45338;-57
2021/05/26 02:58:20;;;;;;;;;0.00;0.00;;;;;12.87;70.18;100737.72;5060913;28;45240;-57
2021/05/26 03:00:45;;;;;;;;;0.00;0.00;;;;;12.87;70.47;100746.47;5061330;28;45237;-58
2021/05/26 03:03:11;;;;;;;;;0.00;0.00;;;;;12.85;70.48;100729.97;5057151;28;45220;-57
2021/05/26 03:05:36;;;;;;;;;0.00;0.00;;;;;12.88;70.19;100742.03;5061382;28;45578;-58
2021/05/26 03:08:02;;;;;;;;;0.00;0.00;;;;;12.86;70.20;100738.69;5060889;28;45225;-59
2021/05/26 03:10:27;;;;;;;;;0.25;0.25;;;;;12.88;70.26;100736.75;5061180;28;45212;-59
2021/05/26 03:12:53;;;;;;;;;0.00;0.00;;;;;12.89;69.91;100734.00;5047559;28;45135;-58
2021/05/26 03:15:19;;;;;;;;;0.00;0.00;;;;;12.90;69.97;100734.81;5040761;28;45543;-58
2021/05/26 03:17:45;;;;;;;;;0.00;0.00;;;;;12.95;70.36;100729.97;5040452;28;45302;-59
2021/05/26 03:20:13;;;;;;;;;0.00;0.00;;;;;12.95;69.57;100726.50;5040599;28;45361;-58
2021/05/26 03:22:39;;;;;;;;;0.00;0.00;;;;;12.97;69.92;100724.56;5041013;28;45277;-58
2021/05/26 03:25:07;;;;;;;;;0.00;0.00;;;;;12.99;70.09;100726.09;5047375;28;45583;-58
2021/05/26 03:27:36;;;;;;;;;0.00;0.00;;;;;12.99;69.95;100720.84;5040599;28;45237;-59
2021/05/26 03:30:08;;;;;;;;;0.00;0.00;;;;;13.00;70.07;100722.50;5040786;28;45410;-59
2021/05/26 03:32:33;;;;;;;;;0.00;0.00;;;;;13.03;69.93;100724.03;5040813;28;45221;-59
2021/05/26 03:34:59;;;;;;;;;0.00;0.00;;;;;13.05;70.05;100722.94;5040686;28;46861;-58
2021/05/26 03:37:25;;;;;;;;;0.00;0.00;;;;;13.04;70.79;100723.88;5040599;28;45489;-58
2021/05/26 03:39:50;;;;;;;;;0.00;0.00;;;;;13.05;70.98;100714.19;5042646;28;45471;-59
2021/05/26 03:42:15;;;;;;;;;0.00;0.00;;;;;13.05;70.81;100714.19;5044989;28;45680;-58
2021/05/26 03:44:41;;;;;;;;;0.00;0.00;;;;;13.05;70.55;100715.03;5040407;28;45470;-59
2021/05/26 03:47:06;;;;;;;;;0.00;0.00;;;;;13.05;70.29;100707.13;5041789;28;45350;-58
2021/05/26 03:49:32;;;;;;;;;0.00;0.00;;;;;13.09;70.59;100716.41;5060814;28;45391;-58
2021/05/26 03:51:57;;;;;;;;;0.00;0.00;;;;;13.11;70.64;100711.03;5060639;28;45539;-59
2021/05/26 03:54:22;;;;;;;;;0.00;0.00;;;;;13.12;70.55;100717.94;5060545;28;45324;-58
2021/05/26 03:56:48;;;;;;;;;0.00;0.00;;;;;13.13;70.79;100712.53;5060393;28;45387;-58
2021/05/26 03:59:13;;;;;;;;;0.00;0.00;;;;;13.14;70.75;100708.91;5060595;28;45513;-58
2021/05/26 04:01:38;;;;;;;;;0.00;0.00;;;;;13.15;70.75;100704.47;5061678;28;45256;-58
2021/05/26 04:04:05;;;;;;;;;0.00;0.00;;;;;13.19;70.78;100705.03;5064139;28;46481;-59
2021/05/26 04:06:32;;;;;;;;;0.75;0.00;;;;;13.21;70.27;100708.38;5064003;28;45427;-57
2021/05/26 04:08:57;;;;;;;;;0.00;0.00;;;;;13.24;70.39;100722.13;5063999;28;45315;-59
2021/05/26 04:11:24;;;;;;;;;0.00;0.00;;;;;13.27;70.19;100713.94;5062383;28;45230;-58
2021/05/26 04:13:49;;;;;;;;;0.00;0.00;;;;;13.28;70.51;100723.56;5043303;28;46577;-57
2021/05/26 04:16:14;;;;;;;;;0.00;0.00;;;;;13.31;70.12;100717.19;5049944;28;45459;-58
2021/05/26 04:18:40;;;;;;;;;0.00;0.00;;;;;13.31;70.17;100707.44;5043584;28;45468;-58
2021/05/26 04:21:05;;;;;;;;;0.00;0.00;;;;;13.31;70.46;100704.81;5043289;28;45362;-58
2021/05/26 04:23:30;;;;;;;;;0.00;0.00;;;;;13.34;70.33;100714.25;5043481;28;45325;-58
2021/05/26 04:25:55;;;;;;;;;0.00;0.00;;;;;13.36;69.81;100706.22;5043464;28;45489;-56
2021/05/26 04:28:22;;;;;;;;;0.00;0.00;;;;;13.37;70.34;100708.72;5043938;28;45282;-59
2021/05/26 04:30:48;;;;;;;;;0.00;0.00;;;;;13.40;69.99;100711.06;5043391;28;45466;-58
2021/05/26 04:33:14;;;;;;;;;0.00;0.00;;;;;13.41;70.34;100719.81;5051259;28;46395;-58
2021/05/26 04:35:39;;;;;;;;;0.00;0.00;;;;;13.41;70.03;100718.03;5043271;28;45438;-58
2021/05/26 04:38:05;;;;;;;;;0.00;0.00;;;;;13.46;70.28;100720.25;5043648;28;45174;-59
2021/05/26 04:40:31;;;;;;;;;0.00;0.00;;;;;13.48;70.22;100716.50;5043242;28;45217;-56
2021/05/26 04:42:56;;;;;;;;;0.00;0.00;;;;;13.52;69.37;100709.97;5043086;28;46377;-59
2021/05/26 04:45:21;;;;;;;;;0.00;0.00;;;;;13.56;69.69;100701.75;5042873;28;45232;-58
2021/05/26 04:47:47;;;;;;;;;0.00;0.00;;;;;13.59;69.39;100704.97;5050492;28;45403;-58
2021/05/26 04:50:13;;;;;;;;;0.00;0.00;;;;;13.63;69.33;100705.50;5063378;28;45402;-58
2021/05/26 04:52:38;;;;;;;;;0.00;0.00;;;;;13.65;69.51;100711.47;5063162;28;46087;-59
2021/05/26 04:55:05;;;;;;;;;0.00;0.00;;;;;13.67;69.11;100710.38;5063076;28;45163;-57
2021/05/26 04:57:30;;;;;;;;;0.00;0.00;;;;;13.66;69.00;100713.16;5063046;28;45362;-59
2021/05/26 04:59:55;;;;;;;;;0.00;0.00;;;;;13.72;69.15;100725.81;5062720;28;45263;-58
2021/05/26 05:02:20;;;;;;;;;0.00;0.00;;;;;13.75;68.87;100715.78;5062733;28;46333;-59
2021/05/26 05:04:46;;;;;;;;;0.00;0.00;;;;;13.77;68.91;100715.63;5062900;28;45310;-58
2021/05/26 05:07:11;;;;;;;;;0.00;0.00;;;;;13.82;68.71;100733.69;5062888;28;45436;-59
2021/05/26 05:09:37;;;;;;;;;0.00;0.00;;;;;13.82;68.68;100739.84;5062854;28;45334;-57
2021/05/26 05:12:02;;;;;;;;;0.00;0.00;;;;;13.81;68.66;100727.59;5061242;28;46589;-58
2021/05/26 05:14:28;;;;;;;;;0.00;0.00;;;;;13.84;68.85;100722.00;5049109;28;45319;-59
2021/05/26 05:16:53;;;;;;;;;0.00;0.00;;;;;13.89;68.43;100748.84;5042482;28;45258;-59
2021/05/26 05:19:18;;;;;;;;;0.00;0.00;;;;;13.92;67.78;100751.19;5042470;28;45231;-58
2021/05/26 05:21:44;;;;;;;;;0.00;0.00;;;;;13.93;67.41;100763.44;5042331;28;46836;-57
2021/05/26 05:24:09;;;;;;;;;0.00;0.00;;;;;13.99;67.16;100766.47;5042513;28;45304;-59
2021/05/26 05:26:34;;;;;;;;;0.00;0.00;;;;;14.02;66.98;100763.59;5042210;28;45231;-57
2021/05/26 05:29:00;;;;;;;;;0.00;0.00;;;;;14.02;66.31;100790.00;5048245;28;45307;-57
2021/05/26 05:31:26;;;;;;;;;0.00;0.00;;;;;14.02;66.29;100795.28;5041988;28;45220;-58
2021/05/26 05:33:51;;;;;;;;;0.00;0.00;;;;;14.00;66.07;100781.38;5042183;28;45362;-58
2021/05/26 05:36:17;;;;;;;;;0.00;0.00;;;;;13.98;65.53;100796.53;5053347;28;45251;-59
2021/05/26 05:38:42;;;;;;;;;0.00;0.00;;;;;13.97;65.50;100789.56;5053459;28;45470;-59
2021/05/26 05:41:08;;;;;;;;;0.00;0.00;;;;;13.99;65.28;100790.25;5051880;28;45468;-59
2021/05/26 05:43:33;;;;;;;;;0.00;0.00;;;;;13.99;65.11;100799.00;5045545;28;45484;-59
2021/05/26 05:46:00;;;;;;;;;0.00;0.00;;;;;14.00;64.93;100800.69;5043081;28;45288;-57
2021/05/26 05:48:26;;;;;;;;;0.00;0.00;;;;;14.06;64.93;100802.78;5053053;28;45477;-59
2021/05/26 05:50:51;;;;;;;;;0.00;0.00;;;;;14.04;64.73;100812.63;5047817;28;45236;-59
2021/05/26 05:53:16;;;;;;;;;0.00;0.00;;;;;14.05;64.88;100816.94;5041445;28;45357;-59
2021/05/26 05:55:42;;;;;;;;;0.00;0.00;;;;;14.02;64.54;100806.66;5053119;28;45312;-59
2021/05/26 05:58:10;;;;;;;;;0.00;0.00;;;;;14.02;64.68;100822.50;5039932;28;45397;-58
2021/05/26 06:00:37;;;;;;;;;0.00;0.00;;;;;14.03;64.77;100818.06;5057475;28;46246;-59
2021/05/26 06:03:03;;;;;;;;;0.00;0.00;;;;;14.10;64.57;100833.22;5053169;28;45465;-58
2021/05/26 06:05:28;;;;;;;;;0.00;0.00;;;;;14.18;64.37;100831.66;5049058;28;45302;-58
2021/05/26 06:07:53;;;;;;;;;0.00;0.00;;;;;14.28;64.18;100827.22;5061810;28;45480;-58
2021/05/26 06:10:19;;;;;;;;;0.00;0.00;;;;;14.33;64.31;100825.81;5058267;28;45235;-58
2021/05/26 06:12:46;;;;;;;;;0.00;0.00;;;;;14.45;64.04;100839.72;5043462;28;45518;-58
2021/05/26 06:15:12;;;;;;;;;0.00;0.00;;;;;14.46;63.54;100837.88;5042222;28;45315;-58
2021/05/26 06:17:37;;;;;;;;;0.00;0.00;;;;;14.45;63.82;100838.84;5046899;28;45289;-58
2021/05/26 06:20:04;;;;;;;;;0.00;0.00;;;;;14.43;63.93;100849.59;5046941;28;45348;-59
2021/05/26 06:22:29;;;;;;;;;0.00;0.00;;;;;14.41;63.92;100853.34;5061068;28;45466;-59
2021/05/26 06:24:54;;;;;;;;;0.00;0.00;;;;;14.36;63.80;100854.59;5052922;28;45331;-59
2021/05/26 06:27:20;;;;;;;;;0.00;0.00;;;;;14.39;64.27;100861.41;5041162;28;45410;-59
2021/05/26 06:29:45;;;;;;;;;0.00;0.00;;;;;14.42;64.23;100866.41;5042767;28;45380;-59
2021/05/26 06:32:10;;;;;;;;;0.00;0.00;;;;;14.50;64.00;100882.38;5045222;28;45477;-59
2021/05/26 06:34:36;;;;;;;;;0.00;0.00;;;;;14.58;63.90;100873.81;5040682;28;45569;-59
2021/05/26 06:37:01;;;;;;;;;0.00;0.00;;;;;14.64;63.62;100872.38;5037323;28;45193;-58
2021/05/26 06:39:27;;;;;;;;;0.00;0.00;;;;;14.88;63.58;100880.69;5041555;28;45283;-60
2021/05/26 06:41:53;;;;;;;;;0.00;0.00;;;;;15.36;62.81;100877.00;5040575;28;45149;-60
2021/05/26 06:44:18;;;;;;;;;0.00;0.00;;;;;15.83;61.26;100889.31;5056965;28;45236;-60
2021/05/26 06:46:43;;;;;;;;;0.00;0.00;;;;;16.09;60.46;100897.38;5052508;28;45514;-61
2021/05/26 06:49:09;;;;;;;;;0.00;0.00;;;;;16.33;59.95;100906.53;5041003;28;45421;-58
2021/05/26 06:51:35;;;;;;;;;0.00;0.00;;;;;16.56;59.57;100910.34;5044830;28;45407;-59
2021/05/26 06:54:00;;;;;;;;;0.00;0.00;;;;;16.65;58.90;100913.91;5055400;28;45325;-60
2021/05/26 06:56:26;;;;;;;;;0.00;0.00;;;;;16.62;58.66;100916.84;5055319;28;45429;-59
2021/05/26 06:58:51;;;;;;;;;0.00;0.00;;;;;16.61;58.41;100923.97;5045109;28;45592;-60
2021/05/26 07:01:17;;;;;;;;;0.00;0.00;;;;;16.58;57.93;100939.34;5043876;28;45485;-59
2021/05/26 07:03:42;;;;;;;;;0.00;0.00;;;;;16.57;57.37;100930.56;5044087;28;45428;-58
2021/05/26 07:06:07;;;;;;;;;0.00;0.00;;;;;16.60;57.87;100942.69;5045655;28;45431;-58
2021/05/26 07:08:33;;;;;;;;;0.00;0.00;;;;;16.71;57.90;100928.34;5047106;28;45470;-58
2021/05/26 07:10:58;;;;;;;;;0.00;0.00;;;;;16.95;56.45;100946.28;5042408;28;45446;-57
2021/05/26 07:13:24;;;;;;;;;0.00;0.00;;;;;17.08;55.96;100935.25;5045807;28;45816;-58
2021/05/26 07:15:49;;;;;;;;;0.00;0.00;;;;;17.15;55.58;100944.28;5046313;28;45691;-59
2021/05/26 07:18:14;;;;;;;;;0.00;0.00;;;;;17.21;55.07;100946.28;5043704;28;46261;-58
2021/05/26 07:20:43;;;;;;;;;0.00;0.00;;;;;17.15;54.31;100949.59;5041640;28;46580;-58
2021/05/26 07:23:09;;;;;;;;;0.00;0.00;;;;;17.06;55.13;100945.19;5045459;28;45178;-58
2021/05/26 07:25:34;;;;;;;;;0.00;0.00;;;;;17.00;54.70;100955.47;5050638;28;46632;-59
2021/05/26 07:28:00;;;;;;;;;0.00;0.00;;;;;16.87;54.64;100948.88;5050318;28;46417;-58
2021/05/26 07:30:25;;;;;;;;;0.00;0.00;;;;;16.88;55.03;100955.88;5049264;28;45975;-59
2021/05/26 07:32:50;;;;;;;;;0.00;0.00;;;;;17.09;54.98;100977.56;5053656;28;45685;-60
2021/05/26 07:35:16;;;;;;;;;0.00;0.00;;;;;17.40;53.93;100977.91;5043574;28;45634;-59
2021/05/26 07:37:42;;;;;;;;;0.00;0.00;;;;;17.76;53.67;100971.63;5044666;28;46222;-60
2021/05/26 07:40:09;;;;;;;;;0.00;0.00;;;;;18.06;53.13;100978.22;5046151;28;45455;-57
2021/05/26 07:42:35;;;;;;;;;0.00;0.00;;;;;18.16;52.97;100976.25;5051963;28;45484;-56
2021/05/26 07:45:01;;;;;;;;;0.00;0.00;;;;;18.03;51.18;100984.72;5045941;28;45541;-59
2021/05/26 07:47:27;;;;;;;;;0.00;0.00;;;;;17.78;52.38;100991.72;5053939;28;46330;-58
2021/05/26 07:49:52;;;;;;;;;0.00;0.00;;;;;17.48;52.73;100987.75;5049719;28;45466;-59
2021/05/26 07:52:21;;;;;;;;;0.00;0.00;;;;;17.44;52.18;100989.06;5052116;28;45510;-58
2021/05/26 07:54:50;;;;;;;;;0.00;0.00;;;;;18.12;51.58;100993.53;5048156;28;45360;-59
2021/05/26 07:57:16;;;;;;;;;0.00;0.00;;;;;18.59;50.39;100998.25;5051993;28;46857;-59
2021/05/26 07:59:43;;;;;;;;;0.00;0.00;;;;;19.22;50.39;100987.91;5049024;28;45235;-59
2021/05/26 08:02:11;;;;;;;;;0.00;0.00;;;;;19.82;48.78;100982.09;5058226;28;45245;-58
2021/05/26 08:04:36;;;;;;;;;0.00;0.00;;;;;20.06;48.38;101002.47;5057160;28;45719;-58
2021/05/26 08:07:01;;;;;;;;;0.00;0.00;;;;;19.95;46.78;101000.19;5060047;28;46312;-59
2021/05/26 08:09:27;;;;;;;;;0.00;0.00;;;;;19.65;47.49;100999.13;5059959;28;45306;-59
2021/05/26 08:11:52;;;;;;;;;0.00;0.00;;;;;19.78;47.45;101001.25;5052932;28;45283;-60
2021/05/26 08:14:17;;;;;;;;;0.00;0.00;;;;;20.43;47.05;101000.06;5048970;28;45718;-59
2021/05/26 08:16:43;;;;;;;;;0.00;0.00;;;;;21.19;45.58;100997.47;5050949;28;47241;-59
2021/05/26 08:19:08;;;;;;;;;0.00;0.00;;;;;21.97;44.27;101000.63;5049970;28;45615;-59
2021/05/26 08:21:34;;;;;;;;;0.00;0.00;;;;;22.56;43.11;100992.41;5056346;28;45537;-60
2021/05/26 08:23:59;;;;;;;;;0.00;0.00;;;;;22.49;42.07;101003.06;5043879;28;45576;-61
2021/05/26 08:26:24;;;;;;;;;0.00;0.00;;;;;22.26;42.27;101007.75;5048205;28;46092;-60
2021/05/26 08:28:52;;;;;;;;;0.00;0.00;;;;;22.42;42.61;101002.16;5038058;28;45396;-59
2021/05/26 08:31:18;;;;;;;;;0.00;0.00;;;;;23.18;41.88;101006.13;5054399;28;45581;-59
2021/05/26 08:33:43;;;;;;;;;0.00;0.00;;;;;24.04;40.63;101009.28;5057313;28;45407;-59
2021/05/26 08:36:09;;;;;;;;;0.00;0.00;;;;;25.09;38.66;101006.09;5049083;28;46040;-59
2021/05/26 08:38:35;;;;;;;;;0.00;0.00;;;;;24.97;38.07;101004.06;5034607;28;45485;-58
2021/05/26 08:41:09;;;;;;;;;0.00;0.00;;;;;24.09;38.58;101020.22;5056017;28;45389;-59
2021/05/26 08:43:37;;;;;;;;;0.00;0.00;;;;;23.43;39.01;101009.16;5048606;28;45406;-59
2021/05/26 08:46:04;;;;;;;;;0.00;0.00;;;;;23.27;39.37;101016.47;5057267;28;45596;-59
2021/05/26 08:48:31;;;;;;;;;0.00;0.00;;;;;22.86;39.50;101011.00;5047550;28;45287;-58
2021/05/26 08:50:58;;;;;;;;;0.00;0.00;;;;;22.25;39.91;101028.34;5051208;28;45485;-59
2021/05/26 08:53:24;;;;;;;;;0.00;0.00;;;;;21.76;40.54;101020.91;5048771;28;45428;-60
2021/05/26 08:55:50;;;;;;;;;0.00;0.00;;;;;21.47;41.23;101017.25;5045869;28;45437;-59
2021/05/26 08:58:16;;;;;;;;;0.00;0.00;;;;;21.50;41.22;101022.22;5044672;28;45446;-60
2021/05/26 09:00:41;;;;;;;;;0.00;0.00;;;;;21.54;41.30;101019.19;5055692;28;45460;-59
2021/05/26 09:03:07;;;;;;;;;0.00;0.00;;;;;21.59;41.12;101017.59;5043938;28;45746;-58
2021/05/26 09:05:34;;;;;;;;;0.00;0.00;;;;;21.34;41.36;101013.50;5047787;28;46349;-59
2021/05/26 09:08:16;;;;;;;;;0.00;0.00;;;;;21.06;41.63;101014.94;5051520;28;45513;-59
2021/05/26 09:10:54;;;;;;;;;0.00;0.00;;;;;20.58;42.19;101026.84;5056115;28;45422;-59
2021/05/26 09:13:35;;;;;;;;;0.00;0.00;;;;;20.31;41.99;101026.34;5046940;28;45529;-60
2021/05/26 09:16:03;;;;;;;;;0.00;0.00;;;;;20.42;42.14;101023.25;5052350;28;46308;-60
2021/05/26 09:18:29;;;;;;;;;0.00;0.00;;;;;21.03;42.08;101030.50;5050094;28;45442;-59
2021/05/26 09:20:56;;;;;;;;;0.00;0.00;;;;;20.84;41.00;101024.66;5049755;28;45547;-60
2021/05/26 09:23:30;;;;;;;;;0.00;0.00;;;;;21.57;40.80;101026.81;5052270;28;45540;-60
2021/05/26 09:25:59;;;;;;;;;0.00;0.00;;;;;23.77;38.74;101037.00;5049479;28;45399;-60
2021/05/26 09:28:32;;;;;;;;;0.00;0.00;;;;;25.09;36.14;101031.13;5050813;28;46482;-59
2021/05/26 09:31:08;;;;;;;;;0.00;0.00;;;;;25.89;34.99;101030.97;5052033;28;45380;-59
2021/05/26 09:33:41;;;;;;;;;0.00;0.00;;;;;25.46;34.87;101036.88;5041167;28;45586;-59
2021/05/26 09:36:21;;;;;;;;;0.00;0.00;;;;;24.79;35.16;101033.38;5049788;28;46483;-60
2021/05/26 09:38:48;;;;;;;;;0.00;0.00;;;;;24.32;35.51;101025.25;5046682;28;45388;-59
2021/05/26 09:41:15;;;;;;;;;0.00;0.00;;;;;24.23;36.12;101037.19;5046973;28;45371;-59
2021/05/26 09:43:49;;;;;;;;;0.00;0.00;;;;;24.04;35.13;101035.25;5054162;28;45427;-60
2021/05/26 09:46:23;;;;;;;;;0.00;0.00;;;;;24.55;34.69;101048.25;5043343;28;46567;-58
2021/05/26 09:49:08;;;;;;;;;0.00;0.00;;;;;24.82;34.73;101040.22;5052807;28;45578;-60
2021/05/26 09:51:41;;;;;;;;;0.00;0.00;;;;;25.35;34.37;101041.03;5051345;28;45455;-60
2021/05/26 09:54:22;;;;;;;;;0.00;0.00;;;;;26.25;31.93;101050.28;5048491;28;45331;-59
2021/05/26 09:56:53;;;;;;;;;0.00;0.00;;;;;25.71;31.87;101053.16;5046262;28;47033;-59
2021/05/26 09:59:21;;;;;;;;;0.00;0.00;;;;;25.23;32.95;101044.59;5036229;28;45420;-59
2021/05/26 10:01:47;;;;;;;;;0.00;0.00;;;;;24.69;33.55;101055.28;5048635;28;45477;-59
2021/05/26 10:04:13;;;;;;;;;0.00;0.00;;;;;24.22;33.87;101051.63;5047829;28;45427;-59
2021/05/26 10:06:40;;;;;;;;;0.00;0.00;;;;;23.84;35.05;101065.50;5049700;28;45558;-61
2021/05/26 10:09:10;;;;;;;;;0.00;0.00;;;;;24.31;34.56;101055.78;5048545;28;45519;-60
2021/05/26 10:11:36;;;;;;;;;0.00;0.00;;;;;25.06;34.04;101069.16;5053288;28;45382;-59
2021/05/26 10:14:06;;;;;;;;;0.00;0.00;;;;;25.64;32.86;101057.75;5047923;28;45371;-60
2021/05/26 10:16:34;;;;;;;;;0.00;0.00;;;;;25.79;32.82;101058.31;5031046;28;47743;-59
2021/05/26 10:19:02;;;;;;;;;0.00;0.00;;;;;25.99;31.71;101057.44;5051990;28;45501;-59
2021/05/26 10:21:29;;;;;;;;;0.00;0.00;;;;;26.50;31.75;101063.81;5046569;28;45301;-59
2021/05/26 10:23:55;;;;;;;;;0.00;0.00;;;;;27.21;30.77;101062.66;5039236;28;45625;-60
2021/05/26 10:29:29;;;;;;;;;0.00;0.00;;;;;30.35;27.88;101062.28;5043831;28;45487;-60
2021/05/26 10:31:55;;;;;;;;;0.00;0.00;;;;;31.89;27.73;101059.19;5044385;28;45505;-59
2021/05/26 10:34:21;;;;;;;;;0.00;0.00;;;;;30.95;26.53;101066.31;5049048;28;45441;-61
2021/05/26 10:36:55;;;;;;;;;0.00;0.00;;;;;32.07;25.65;101064.34;5048508;28;46655;-60
2021/05/26 10:39:31;;;;;;;;;0.00;0.00;;;;;33.76;25.04;101072.19;5052314;28;45303;-60
2021/05/26 10:41:57;;;;;;;;;0.00;0.00;;;;;34.33;23.03;101070.50;5043355;28;45521;-60
2021/05/26 10:44:55;;;;;;;;;0.00;0.00;;;;;34.97;22.72;101082.81;5047657;28;45553;-60
2021/05/26 10:47:36;;;;;;;;;0.00;0.00;;;;;35.79;22.34;101074.44;5047209;28;46252;-60
2021/05/26 10:50:16;;;;;;;;;0.00;0.00;;;;;35.49;21.42;101079.75;5051087;28;45423;-60
2021/05/26 10:53:01;;;;;;;;;0.00;0.00;;;;;34.19;22.76;101081.94;5045949;28;45481;-60
2021/05/26 10:55:42;;;;;;;;;0.00;0.00;;;;;33.14;22.63;101080.03;5043614;28;45434;-59
2021/05/26 10:58:13;;;;;;;;;0.00;0.00;;;;;31.76;23.89;101070.44;5049590;28;47160;-60
2021/05/26 11:00:44;;;;;;;;;0.00;0.00;;;;;30.16;23.73;101080.56;5046005;28;45517;-59
2021/05/26 11:03:25;;;;;;;;;0.00;0.00;;;;;28.67;25.46;101079.06;5055863;28;45433;-60
2021/05/26 11:05:54;;;;;;;;;0.00;0.00;;;;;27.62;26.75;101069.34;5059825;28;45532;-60
2021/05/26 11:08:32;;;;;;;;;0.00;0.00;;;;;26.69;27.85;101083.63;5026536;28;48478;-60
2021/05/26 11:11:41;;;;;;;;;0.00;0.00;;;;;26.48;28.28;101079.34;5047253;28;45401;-59
2021/05/26 11:14:11;;;;;;;;;0.00;0.00;;;;;26.34;28.20;101086.69;5045921;28;45316;-61
2021/05/26 11:16:54;;;;;;;;;0.00;0.00;;;;;26.30;27.35;101091.66;5043922;28;45314;-60
2021/05/26 11:19:24;;;;;;;;;0.00;0.00;;;;;26.31;28.32;101074.50;5054179;28;45406;-59
2021/05/26 11:22:03;;;;;;;;;0.00;0.00;;;;;26.43;28.08;101068.41;5057895;28;45438;-60
2021/05/26 11:24:32;;;;;;;;;0.00;0.00;;;;;26.34;27.79;101071.34;5042298;28;45372;-60
2021/05/26 11:26:58;;;;;;;;;0.00;0.00;;;;;26.09;28.76;101067.75;5054249;28;45343;-59
2021/05/26 11:29:34;;;;;;;;;0.00;0.00;;;;;25.79;28.41;101062.88;5048131;28;45925;-59